Time;durP1;ratioP1;P1;durP2;ratioP2;P2;SDS_P1;SDS_P2;PMS_P1;PMS_P2;Temp;Humidity;BMP_temperature;BMP_pressure;BME280_temperature;BME280_humidity;BME280_pressure;Samples;Min_cycle;Max_cycle;Signal;HPM_P1;HPM_P2
2022/06/18 00:02:15;;;;;;;6.22;3.95;;;537.70;2406.40;;;;;;5017047;28;20426;-81
2022/06/18 00:04:43;;;;;;;6.50;3.78;;;537.70;2406.40;;;;;;4999172;28;20039;-82
2022/06/18 00:07:12;;;;;;;5.90;3.63;;;537.70;2406.40;;;;;;4998865;28;20033;-81
2022/06/18 00:09:44;;;;;;;6.53;3.72;;;537.70;2406.40;;;;;;4998894;28;20497;-82
2022/06/18 00:15:03;;;;;;;6.47;3.88;;;537.70;2406.40;;;;;;5015609;28;20402;-82
2022/06/18 00:17:29;;;;;;;7.32;3.83;;;537.60;2406.40;;;;;;5016225;28;20053;-82
2022/06/18 00:19:55;;;;;;;6.03;4.68;;;537.80;2406.40;;;;;;4998631;28;20052;-81
2022/06/18 00:22:23;;;;;;;6.10;4.40;;;537.70;2406.40;;;;;;4998823;28;20473;-81
2022/06/18 00:24:50;;;;;;;10.77;5.15;;;537.60;2406.40;;;;;;4998843;28;20057;-82
2022/06/18 00:27:17;;;;;;;5.03;3.53;;;537.60;2406.40;;;;;;4998391;28;20073;-82
2022/06/18 00:29:44;;;;;;;5.85;4.13;;;537.80;2406.40;;;;;;4998403;28;20088;-81
2022/06/18 00:32:10;;;;;;;6.47;3.63;;;537.70;2406.40;;;;;;4998522;28;20448;-81
2022/06/18 00:34:36;;;;;;;6.30;4.10;;;537.70;2406.40;;;;;;4998467;28;20061;-81
2022/06/18 00:37:04;;;;;;;8.20;4.40;;;537.60;2406.40;;;;;;4998657;28;20459;-81
2022/06/18 00:39:30;;;;;;;5.22;3.72;;;537.60;2406.40;;;;;;4998646;28;20034;-82
2022/06/18 00:42:08;;;;;;;5.85;4.03;;;537.60;2406.40;;;;;;4998267;28;20057;-82
2022/06/18 00:44:37;;;;;;;5.68;3.60;;;537.60;2406.40;;;;;;4998441;28;20026;-81
2022/06/18 00:47:36;;;;;;;7.97;3.67;;;537.60;2406.40;;;;;;4998298;28;20072;-80
2022/06/18 00:50:18;;;;;;;5.63;3.63;;;537.60;2406.40;;;;;;4972282;28;20394;-80
2022/06/18 00:52:55;;;;;;;5.63;3.85;;;537.60;2406.40;;;;;;4998396;28;20037;-80
2022/06/18 00:55:40;;;;;;;7.13;4.10;;;537.60;2406.40;;;;;;4997783;28;20427;-80
2022/06/18 00:58:15;;;;;;;5.10;3.70;;;537.70;2406.40;;;;;;5015551;28;20029;-80
2022/06/18 01:00:47;;;;;;;5.10;3.75;;;537.60;2406.40;;;;;;4998478;28;20037;-81
2022/06/18 01:03:35;;;;;;;6.25;4.10;;;537.60;2406.40;;;;;;4998034;28;20114;-80
2022/06/18 01:06:10;;;;;;;5.70;3.63;;;537.60;2406.40;;;;;;4998141;28;20410;-81
2022/06/18 01:08:37;;;;;;;6.00;3.78;;;512.90;2380.80;;;;;;5015678;28;20534;-79
2022/06/18 01:11:08;;;;;;;5.90;3.88;;;512.90;2380.80;;;;;;5015339;28;20029;-80
2022/06/18 01:13:40;;;;;;;5.30;3.92;;;512.90;2380.80;;;;;;4998117;28;20026;-80
2022/06/18 01:16:08;;;;;;;6.97;4.07;;;512.70;2380.80;;;;;;5015216;28;20038;-80
2022/06/18 01:18:34;;;;;;;6.07;4.13;;;512.90;2380.80;;;;;;4998059;28;20757;-80
2022/06/18 01:21:07;;;;;;;5.22;3.65;;;512.80;2380.80;;;;;;4998022;28;20533;-80
2022/06/18 01:23:46;;;;;;;7.93;3.85;;;512.70;2380.80;;;;;;5015150;28;20033;-81
2022/06/18 01:26:12;;;;;;;5.80;3.90;;;512.80;2380.80;;;;;;4997127;28;20034;-80
2022/06/18 01:28:39;;;;;;;6.32;3.70;;;512.80;2380.80;;;;;;4993928;28;20047;-80
2022/06/18 01:31:05;;;;;;;5.50;3.80;;;512.70;2380.80;;;;;;4995390;28;20026;-80
2022/06/18 01:33:35;;;;;;;4.95;4.07;;;512.70;2380.80;;;;;;5010780;28;20113;-81
2022/06/18 01:36:07;;;;;;;5.72;4.30;;;512.70;2380.80;;;;;;4994143;28;20092;-81
2022/06/18 01:38:36;;;;;;;5.45;4.10;;;512.70;2380.80;;;;;;4995136;28;20027;-80
2022/06/18 01:44:30;;;;;;;9.57;4.20;;;512.70;2380.80;;;;;;4995135;28;20029;-79
2022/06/18 01:47:01;;;;;;;6.47;3.78;;;512.70;2380.80;;;;;;4994144;28;20054;-80
2022/06/18 01:49:33;;;;;;;7.30;4.15;;;512.60;2380.80;;;;;;4994041;28;20058;-80
2022/06/18 01:52:01;;;;;;;6.47;3.80;;;512.70;2380.80;;;;;;4995127;28;20030;-80
2022/06/18 01:54:39;;;;;;;5.68;3.92;;;512.60;2380.80;;;;;;4993686;28;20043;-80
2022/06/18 01:57:21;;;;;;;9.75;4.40;;;512.60;2380.80;;;;;;4994107;28;20384;-81
2022/06/18 01:59:52;;;;;;;6.00;4.50;;;512.60;2380.80;;;;;;4993830;28;20117;-80
2022/06/18 02:02:18;;;;;;;5.75;3.85;;;512.60;2380.80;;;;;;4994219;28;20471;-80
2022/06/18 02:04:45;;;;;;;9.07;4.40;;;512.40;2380.80;;;;;;4993682;28;20492;-81
2022/06/18 02:07:12;;;;;;;6.15;3.95;;;512.60;2380.80;;;;;;4993980;28;20058;-81
2022/06/18 02:09:58;;;;;;;4.88;4.05;;;512.40;2380.80;;;;;;4993953;28;20026;-81
2022/06/18 02:12:30;;;;;;;7.90;4.20;;;512.50;2380.80;;;;;;4993339;28;20069;-82
2022/06/18 02:15:00;;;;;;;5.53;4.03;;;512.50;2380.80;;;;;;4994988;28;20471;-80
2022/06/18 02:17:27;;;;;;;5.07;4.03;;;512.50;2380.80;;;;;;4993641;28;20030;-80
2022/06/18 02:19:58;;;;;;;5.18;3.92;;;512.40;2380.80;;;;;;4993415;28;20113;-80
2022/06/18 02:22:33;;;;;;;5.45;3.85;;;512.40;2380.80;;;;;;4994658;28;20471;-80
2022/06/18 02:24:59;;;;;;;8.57;4.20;;;512.40;2380.80;;;;;;4993501;28;20065;-81
2022/06/18 02:27:25;;;;;;;5.53;3.70;;;512.40;2380.80;;;;;;4994686;28;20101;-81
2022/06/18 02:29:53;;;;;;;8.20;4.10;;;512.40;2380.80;;;;;;5010262;28;20100;-81
2022/06/18 02:32:48;;;;;;;8.73;4.13;;;512.30;2380.80;;;;;;4994212;28;20033;-81
2022/06/18 02:35:15;;;;;;;6.22;4.00;;;512.30;2380.80;;;;;;4993165;28;20043;-82
2022/06/18 02:37:43;;;;;;;7.78;4.18;;;512.20;2380.80;;;;;;4992973;28;20033;-81
2022/06/18 02:40:22;;;;;;;5.85;4.30;;;512.00;2380.80;;;;;;4993282;28;20022;-81
2022/06/18 02:42:51;;;;;;;8.07;4.13;;;487.30;2380.80;;;;;;4993381;28;20025;-81
2022/06/18 02:45:19;;;;;;;11.95;4.53;;;512.00;2380.80;;;;;;4993228;28;20333;-80
2022/06/18 02:47:45;;;;;;;6.30;4.35;;;487.30;2380.80;;;;;;5002472;28;20030;-80
2022/06/18 02:50:14;;;;;;;6.95;4.53;;;487.20;2380.80;;;;;;5005050;28;20459;-80
2022/06/18 02:52:44;;;;;;;5.32;3.88;;;512.00;2380.80;;;;;;5006077;28;20027;-80
2022/06/18 02:55:22;;;;;;;6.72;4.35;;;512.10;2380.80;;;;;;5004802;28;20035;-76
2022/06/18 02:57:52;;;;;;;8.23;4.00;;;512.10;2380.80;;;;;;5007327;28;20173;-77
2022/06/18 03:00:18;;;;;;;5.50;3.95;;;512.10;2380.80;;;;;;5023638;28;20037;-77
2022/06/18 03:02:44;;;;;;;4.97;3.72;;;512.20;2380.80;;;;;;5014273;28;20034;-81
2022/06/18 03:05:26;;;;;;;5.15;4.13;;;512.20;2380.80;;;;;;5009992;28;20039;-80
2022/06/18 03:07:51;;;;;;;4.38;3.30;;;512.20;2380.80;;;;;;5010366;28;20071;-80
2022/06/18 03:13:04;;;;;;;7.28;4.32;;;487.10;2380.80;;;;;;4996800;28;20034;-79
2022/06/18 03:15:30;;;;;;;6.72;4.90;;;512.00;2380.80;;;;;;5011600;28;20058;-80
2022/06/18 03:18:00;;;;;;;12.40;6.13;;;487.30;2380.80;;;;;;5011625;28;20030;-80
2022/06/18 03:20:48;;;;;;;9.25;6.88;;;487.10;2380.80;;;;;;5012476;28;20391;-81
2022/06/18 03:23:16;;;;;;;9.13;6.78;;;487.10;2380.80;;;;;;5012845;28;20032;-81
2022/06/18 03:25:42;;;;;;;7.18;6.13;;;486.90;2380.80;;;;;;5013600;28;20459;-81
2022/06/18 03:28:12;;;;;;;12.73;7.70;;;487.10;2380.80;;;;;;5015163;28;20066;-81
2022/06/18 03:30:40;;;;;;;9.73;7.22;;;487.00;2380.80;;;;;;5016064;28;20084;-81
2022/06/18 03:33:07;;;;;;;8.63;5.88;;;486.80;2380.80;;;;;;4997481;28;20388;-81
2022/06/18 03:35:33;;;;;;;8.85;5.97;;;512.10;2380.80;;;;;;4995455;28;20769;-81
2022/06/18 03:37:58;;;;;;;8.95;6.78;;;487.10;2380.80;;;;;;5012150;28;20038;-81
2022/06/18 03:40:24;;;;;;;11.18;5.20;;;487.10;2380.80;;;;;;5013371;28;20075;-80
2022/06/18 03:42:52;;;;;;;9.50;5.35;;;487.20;2380.80;;;;;;5013176;28;20026;-81
2022/06/18 03:45:18;;;;;;;10.68;5.97;;;487.20;2380.80;;;;;;5012180;28;20502;-81
2022/06/18 03:47:46;;;;;;;10.05;5.30;;;487.00;2380.80;;;;;;5013707;28;20033;-81
2022/06/18 03:50:16;;;;;;;7.57;5.40;;;486.80;2380.80;;;;;;4996342;28;20112;-80
2022/06/18 03:52:42;;;;;;;6.43;4.70;;;486.80;2380.80;;;;;;5016181;28;20356;-81
2022/06/18 03:55:12;;;;;;;7.25;4.70;;;486.80;2380.80;;;;;;5015329;28;20042;-81
2022/06/18 03:57:39;;;;;;;11.45;7.03;;;486.90;2380.80;;;;;;5015387;28;20037;-81
2022/06/18 04:00:07;;;;;;;14.27;9.45;;;486.70;2380.80;;;;;;5015603;28;20481;-81
2022/06/18 04:02:33;;;;;;;12.13;9.43;;;486.70;2380.80;;;;;;5016701;28;20047;-80
2022/06/18 04:04:59;;;;;;;12.73;10.30;;;486.70;2380.80;;;;;;5015311;28;20479;-81
2022/06/18 04:07:26;;;;;;;18.95;11.73;;;486.70;2380.80;;;;;;5015719;28;20025;-81
2022/06/18 04:09:53;;;;;;;10.30;8.68;;;486.70;2380.80;;;;;;4999312;28;20112;-81
2022/06/18 04:12:20;;;;;;;12.05;7.93;;;486.70;2380.80;;;;;;5015277;28;20056;-81
2022/06/18 04:14:46;;;;;;;8.20;6.93;;;487.00;2380.80;;;;;;5016541;28;20041;-81
2022/06/18 04:17:16;;;;;;;8.50;6.00;;;486.90;2380.80;;;;;;5016636;28;20034;-80
2022/06/18 04:19:42;;;;;;;7.97;5.07;;;487.10;2380.80;;;;;;5015060;28;20033;-81
2022/06/18 04:22:09;;;;;;;9.25;4.80;;;487.00;2380.80;;;;;;5015622;28;20054;-82
2022/06/18 04:24:35;;;;;;;9.68;7.40;;;487.10;2380.80;;;;;;4998671;28;20030;-81
2022/06/18 04:27:01;;;;;;;11.05;9.52;;;487.10;2380.80;;;;;;5015242;28;20129;-80
2022/06/18 04:29:28;;;;;;;14.07;9.80;;;487.00;2380.80;;;;;;4998668;28;20054;-81
2022/06/18 04:31:54;;;;;;;13.57;10.43;;;487.10;2380.80;;;;;;5015105;28;20038;-81
2022/06/18 04:34:20;;;;;;;15.23;10.13;;;487.10;2380.80;;;;;;5015255;28;20065;-81
2022/06/18 04:36:46;;;;;;;16.45;11.65;;;487.00;2380.80;;;;;;5016255;28;20033;-81
2022/06/18 04:39:12;;;;;;;14.77;10.63;;;487.10;2380.80;;;;;;5014907;28;20467;-81
2022/06/18 04:41:38;;;;;;;13.80;11.13;;;487.10;2380.80;;;;;;5016387;28;20033;-81
2022/06/18 04:44:04;;;;;;;13.93;10.13;;;487.00;2380.80;;;;;;5015061;28;20113;-81
2022/06/18 04:46:30;;;;;;;14.05;10.95;;;487.00;2380.80;;;;;;4998442;28;20099;-81
2022/06/18 04:48:56;;;;;;;13.20;10.00;;;487.10;2380.80;;;;;;5014967;28;20558;-80
2022/06/18 04:51:22;;;;;;;11.25;10.02;;;487.20;2380.80;;;;;;5017699;28;20105;-75
2022/06/18 04:53:48;;;;;;;13.15;8.38;;;487.20;2380.80;;;;;;5015380;28;20117;-81
2022/06/18 04:56:14;;;;;;;12.82;9.40;;;487.30;2380.80;;;;;;5016480;28;20352;-81
2022/06/18 04:58:40;;;;;;;13.68;9.82;;;512.00;2380.80;;;;;;5015302;28;20456;-81
2022/06/18 05:01:06;;;;;;;12.38;9.30;;;512.00;2380.80;;;;;;4997790;28;20128;-82
2022/06/18 05:03:32;;;;;;;9.05;6.63;;;512.30;2380.80;;;;;;5014690;28;20026;-81
2022/06/18 05:05:58;;;;;;;9.40;5.65;;;512.40;2380.80;;;;;;4998214;28;20068;-81
2022/06/18 05:08:25;;;;;;;8.10;5.20;;;512.50;2380.80;;;;;;5015685;28;20371;-81
2022/06/18 05:10:51;;;;;;;6.05;4.07;;;512.70;2380.80;;;;;;5014443;28;20026;-81
2022/06/18 05:13:18;;;;;;;9.43;4.20;;;512.80;2380.80;;;;;;5015569;28;20022;-81
2022/06/18 05:15:46;;;;;;;5.47;4.30;;;512.80;2380.80;;;;;;4997435;28;20034;-81
2022/06/18 05:18:16;;;;;;;8.00;4.72;;;512.90;2380.80;;;;;;5014401;28;20033;-80
2022/06/18 05:20:43;;;;;;;7.90;5.80;;;512.90;2380.80;;;;;;5014323;28;20057;-82
2022/06/18 05:23:13;;;;;;;10.82;7.32;;;512.90;2380.80;;;;;;5014080;28;20033;-81
2022/06/18 05:25:40;;;;;;;10.07;8.50;;;512.90;2380.80;;;;;;5020688;28;20493;-81
2022/06/18 05:28:06;;;;;;;10.55;7.60;;;537.60;2406.40;;;;;;5016823;28;20378;-81
2022/06/18 05:30:32;;;;;;;13.02;8.15;;;537.80;2406.40;;;;;;5016224;28;20021;-81
2022/06/18 05:32:58;;;;;;;10.35;7.15;;;537.90;2406.40;;;;;;5016831;28;20429;-81
2022/06/18 05:35:23;;;;;;;12.65;7.60;;;537.90;2406.40;;;;;;5016705;28;20030;-81
2022/06/18 05:37:51;;;;;;;8.45;7.38;;;537.90;2406.40;;;;;;5033598;28;20065;-81
2022/06/18 05:40:18;;;;;;;9.32;4.97;;;537.80;2406.40;;;;;;5017081;28;20454;-81
2022/06/18 05:42:43;;;;;;;9.40;5.70;;;537.90;2406.40;;;;;;5016767;28;20061;-81
2022/06/18 05:45:10;;;;;;;7.38;5.47;;;538.00;2406.40;;;;;;5017169;28;20099;-82
2022/06/18 05:47:36;;;;;;;7.13;4.30;;;538.00;2406.40;;;;;;5017312;28;20387;-82
2022/06/18 05:50:04;;;;;;;8.57;4.45;;;538.10;2406.40;;;;;;5016770;28;20432;-81
2022/06/18 05:52:30;;;;;;;9.23;4.70;;;538.20;2406.40;;;;;;5016552;28;20079;-82
2022/06/18 05:54:57;;;;;;;8.23;3.97;;;538.30;2406.40;;;;;;5016631;28;20037;-81
2022/06/18 05:57:22;;;;;;;6.55;4.00;;;538.30;2406.40;;;;;;5016496;28;20025;-81
2022/06/18 05:59:49;;;;;;;6.55;3.90;;;538.40;2406.40;;;;;;5016689;28;20116;-81
2022/06/18 06:02:17;;;;;;;8.15;4.38;;;538.40;2406.40;;;;;;5034187;28;20032;-79
2022/06/18 06:04:43;;;;;;;5.25;3.70;;;538.50;2406.40;;;;;;5016441;28;20044;-81
2022/06/18 06:07:14;;;;;;;8.80;4.78;;;538.50;2406.40;;;;;;5016699;28;20108;-80
2022/06/18 06:12:23;;;;;;;5.03;3.60;;;563.30;2432.00;;;;;;5034043;28;20036;-80
2022/06/18 06:14:50;;;;;;;6.10;4.18;;;563.40;2432.00;;;;;;5016483;28;20041;-81
2022/06/18 06:17:21;;;;;;;6.47;3.78;;;563.50;2432.00;;;;;;5016285;28;20037;-80
2022/06/18 06:19:48;;;;;;;6.38;4.03;;;563.50;2432.00;;;;;;5016899;28;20029;-79
2022/06/18 06:22:13;;;;;;;6.80;4.18;;;563.50;2432.00;;;;;;5016280;28;20071;-80
2022/06/18 06:24:39;;;;;;;5.05;3.80;;;563.60;2432.00;;;;;;5016032;28;20025;-80
2022/06/18 06:27:05;;;;;;;8.02;3.83;;;563.60;2432.00;;;;;;5033757;28;20025;-79
2022/06/18 06:29:32;;;;;;;7.85;4.30;;;563.70;2432.00;;;;;;5015722;28;20050;-78
2022/06/18 06:31:58;;;;;;;9.73;4.15;;;563.70;2432.00;;;;;;5033548;28;20112;-78
2022/06/18 06:34:24;;;;;;;9.70;4.05;;;563.90;2432.00;;;;;;5016068;28;20167;-79
2022/06/18 06:36:51;;;;;;;6.22;3.65;;;563.90;2432.00;;;;;;5016122;28;20411;-78
2022/06/18 06:39:17;;;;;;;8.43;3.67;;;564.00;2432.00;;;;;;5015800;28;20065;-79
2022/06/18 06:41:44;;;;;;;4.43;3.50;;;564.10;2432.00;;;;;;5033421;28;20394;-80
2022/06/18 06:44:10;;;;;;;8.02;3.42;;;564.10;2432.00;;;;;;5016016;28;20037;-79
2022/06/18 06:46:36;;;;;;;7.03;4.03;;;588.90;2432.00;;;;;;5015687;28;20112;-81
2022/06/18 06:49:02;;;;;;;4.93;3.67;;;589.00;2432.00;;;;;;5033653;28;20056;-80
2022/06/18 06:51:30;;;;;;;6.47;3.38;;;589.00;2432.00;;;;;;5033302;28;20033;-79
2022/06/18 06:53:56;;;;;;;10.73;4.18;;;589.00;2432.00;;;;;;5028760;28;20129;-80
2022/06/18 06:59:09;;;;;;;7.72;4.13;;;589.00;2432.00;;;;;;5013361;28;20033;-80
2022/06/18 07:01:36;;;;;;;9.70;3.80;;;589.40;2432.00;;;;;;5013461;28;20411;-80
2022/06/18 07:04:07;;;;;;;10.20;5.85;;;589.20;2432.00;;;;;;5022608;28;20058;-78
2022/06/18 07:06:35;;;;;;;7.97;4.05;;;589.30;2432.00;;;;;;5013639;28;20029;-79
2022/06/18 07:09:03;;;;;;;7.78;3.53;;;589.40;2432.00;;;;;;5015844;28;20115;-79
2022/06/18 07:11:29;;;;;;;6.38;3.38;;;589.40;2432.00;;;;;;5015810;28;20026;-79
2022/06/18 07:13:55;;;;;;;8.55;3.67;;;589.40;2432.00;;;;;;5015312;28;20375;-78
2022/06/18 07:16:20;;;;;;;5.43;3.50;;;589.40;2432.00;;;;;;5015285;28;20553;-78
2022/06/18 07:18:49;;;;;;;7.20;3.75;;;589.60;2432.00;;;;;;5032986;28;20021;-80
2022/06/18 07:21:16;;;;;;;7.60;3.88;;;589.70;2432.00;;;;;;5015169;28;20030;-81
2022/06/18 07:23:43;;;;;;;6.88;3.80;;;614.40;2432.00;;;;;;5015636;28;20025;-81
2022/06/18 07:26:12;;;;;;;5.32;3.67;;;614.50;2432.00;;;;;;5019326;28;20454;-80
2022/06/18 07:28:38;;;;;;;10.15;4.38;;;614.60;2432.00;;;;;;5019038;28;20050;-79
2022/06/18 07:31:04;;;;;;;7.63;3.90;;;614.50;2432.00;;;;;;5019512;28;20025;-81
2022/06/18 07:33:35;;;;;;;6.70;3.53;;;614.70;2432.00;;;;;;5019137;28;20053;-78
2022/06/18 07:36:01;;;;;;;6.78;4.28;;;614.70;2432.00;;;;;;5019540;28;20029;-80
2022/06/18 07:38:27;;;;;;;9.10;4.80;;;614.90;2432.00;;;;;;5020082;28;20048;-84
2022/06/18 07:40:54;;;;;;;7.20;3.80;;;615.10;2380.80;;;;;;5019584;28;20065;-81
2022/06/18 07:43:37;;;;;;;5.07;3.38;;;615.30;2355.20;;;;;;5019384;28;20026;-84
2022/06/18 07:46:05;;;;;;;7.60;3.85;;;615.10;2380.80;;;;;;5020095;28;20036;-80
2022/06/18 07:48:32;;;;;;;5.97;4.00;;;615.20;2380.80;;;;;;5019606;28;20025;-78
2022/06/18 07:50:59;;;;;;;8.88;4.28;;;615.30;2406.40;;;;;;5036920;28;20025;-80
2022/06/18 07:53:25;;;;;;;5.82;4.05;;;615.30;2406.40;;;;;;5036218;28;20026;-81
2022/06/18 07:55:52;;;;;;;7.47;4.28;;;640.10;2380.80;;;;;;5018486;28;20071;-81
2022/06/18 07:58:18;;;;;;;6.32;3.60;;;615.30;2380.80;;;;;;5018764;28;20037;-80
2022/06/18 08:00:44;;;;;;;8.52;5.63;;;640.40;2380.80;;;;;;5018353;28;20036;-80
2022/06/18 08:03:12;;;;;;;9.93;5.10;;;640.70;2380.80;;;;;;5036867;28;20037;-79
2022/06/18 08:05:39;;;;;;;7.03;3.58;;;640.90;2304.00;;;;;;5041995;28;20031;-79
2022/06/18 08:08:05;;;;;;;7.47;3.78;;;665.70;2252.80;;;;;;5041679;28;20022;-81
2022/06/18 08:10:32;;;;;;;6.57;3.13;;;665.90;2227.20;;;;;;5037321;28;20036;-80
2022/06/18 08:12:58;;;;;;;5.93;3.45;;;666.20;2201.60;;;;;;5021556;28;20184;-79
2022/06/18 08:15:24;;;;;;;6.97;3.60;;;666.10;2201.60;;;;;;5037779;28;20057;-76
2022/06/18 08:17:50;;;;;;;5.20;3.47;;;666.10;2176.00;;;;;;5044152;28;20029;-78
2022/06/18 08:20:15;;;;;;;8.75;4.63;;;666.40;2150.40;;;;;;5019501;28;20033;-79
2022/06/18 08:22:47;;;;;;;7.80;4.70;;;691.30;2124.80;;;;;;4998339;28;20627;-76
2022/06/18 08:25:14;;;;;;;9.38;5.10;;;691.20;2099.20;;;;;;5008514;28;20040;-77
2022/06/18 08:27:41;;;;;;;8.48;4.20;;;691.30;2099.20;;;;;;5016140;28;20076;-77
2022/06/18 08:30:08;;;;;;;10.27;6.63;;;691.30;2099.20;;;;;;5014486;28;20056;-80
2022/06/18 08:32:34;;;;;;;7.93;3.50;;;691.30;2124.80;;;;;;5025627;28;20162;-80
2022/06/18 08:35:00;;;;;;;5.53;3.10;;;691.60;2099.20;;;;;;5018291;28;20466;-76
2022/06/18 08:37:28;;;;;;;7.93;3.65;;;691.70;2048.00;;;;;;5017840;28;20025;-80
2022/06/18 08:39:55;;;;;;;7.15;3.63;;;691.80;2048.00;;;;;;5016257;28;20027;-76
2022/06/18 08:42:25;;;;;;;5.40;3.45;;;;;;;;;;5008785;28;20018;-78
2022/06/18 08:44:58;;;;;;;9.00;4.15;;;;;;;;;;5003446;28;20034;-80
2022/06/18 08:47:51;;;;;;;7.88;4.70;;;;;;;;;;5003714;28;20018;-81
2022/06/18 08:50:20;;;;;;;7.13;4.25;;;;;;;;;;4980929;28;20056;-80
2022/06/18 08:52:52;;;;;;;5.07;3.33;;;;;;;;;;5030203;28;20025;-82
2022/06/18 08:55:41;;;;;;;5.88;3.70;;;;;;;;;;5000836;28;20034;-81
2022/06/18 08:58:28;;;;;;;8.60;3.80;;;;;;;;;;4993585;28;20155;-80
2022/06/18 09:01:10;;;;;;;9.35;3.65;;;692.10;2022.40;;;;;;5001485;28;20110;-82
2022/06/18 09:04:22;;;;;;;9.90;5.03;;;692.10;2048.00;;;;;;5009068;28;20482;-83
2022/06/18 09:06:59;;;;;;;8.00;4.15;;;692.00;1996.80;;;;;;4920559;29;20454;-81
2022/06/18 09:09:25;;;;;;;5.90;3.53;;;716.80;2022.40;;;;;;4936327;29;20031;-81
2022/06/18 09:12:04;;;;;;;11.80;5.72;;;716.90;1996.80;;;;;;4974288;28;20490;-81
2022/06/18 09:14:50;;;;;;;9.57;4.90;;;716.80;1996.80;;;;;;4998023;28;20029;-81
2022/06/18 09:17:22;;;;;;;9.23;4.53;;;716.80;2022.40;;;;;;4998254;28;20036;-81
2022/06/18 09:20:00;;;;;;;7.55;4.25;;;716.90;2048.00;;;;;;4998428;28;20061;-81
2022/06/18 09:22:28;;;;;;;6.10;3.88;;;716.90;2048.00;;;;;;4998706;28;20028;-82
2022/06/18 09:25:02;;;;;;;11.05;4.22;;;717.20;1996.80;;;;;;4998208;28;20068;-80
2022/06/18 09:27:45;;;;;;;5.93;4.00;;;717.10;1996.80;;;;;;4997830;28;20071;-79
2022/06/18 09:30:19;;;;;;;8.50;4.43;;;717.10;1996.80;;;;;;5009990;28;20045;-81
2022/06/18 09:32:51;;;;;;;7.05;3.92;;;717.30;1996.80;;;;;;5005633;28;20029;-80
2022/06/18 09:35:25;;;;;;;8.50;3.78;;;717.40;2022.40;;;;;;5026195;28;20490;-80
2022/06/18 09:38:00;;;;;;;6.80;3.83;;;717.50;1996.80;;;;;;5008367;28;20018;-80
2022/06/18 09:40:45;;;;;;;9.88;4.20;;;717.60;1971.20;;;;;;5002506;28;20061;-81
2022/06/18 09:43:36;;;;;;;7.10;3.50;;;717.60;1971.20;;;;;;4996950;28;20035;-81
2022/06/18 09:46:09;;;;;;;5.65;3.45;;;742.40;1971.20;;;;;;4984875;28;20045;-81
2022/06/18 09:48:37;;;;;;;7.95;4.13;;;717.70;1971.20;;;;;;5032075;28;20021;-81
2022/06/18 09:51:15;;;;;;;6.28;4.75;;;742.40;1996.80;;;;;;5033207;28;20025;-81
2022/06/18 09:53:43;;;;;;;4.95;4.10;;;;;;;;;;5033439;28;20032;-81
2022/06/18 09:56:11;;;;;;;7.63;3.70;;;;;;;;;;5033365;28;20124;-82
2022/06/18 09:58:42;;;;;;;9.13;3.67;;;;;;;;;;5033638;28;20103;-82
2022/06/18 10:01:10;;;;;;;9.70;3.60;;;;;;;;;;5033265;28;20026;-87
2022/06/18 10:09:13;;;;;;;5.53;3.38;;;;;;;;;;5034556;28;20517;-82
2022/06/18 10:11:41;;;;;;;7.13;3.58;;;;;;;;;;5033203;28;20466;-83
2022/06/18 10:14:10;;;;;;;9.15;5.68;;;;;;;;;;5027033;28;20018;-81
2022/06/18 10:16:51;;;;;;;12.73;6.80;;;742.80;1920.00;;;;;;4997466;28;20096;-81
2022/06/18 10:19:36;;;;;;;5.03;4.03;;;743.00;1894.40;;;;;;4997293;28;20072;-81
2022/06/18 10:22:25;;;;;;;9.05;3.45;;;742.90;1843.20;;;;;;5003523;28;20115;-81
2022/06/18 10:24:51;;;;;;;6.13;3.42;;;742.90;1843.20;;;;;;4990195;28;20038;-81
2022/06/18 10:27:29;;;;;;;6.95;3.75;;;743.00;1817.60;;;;;;4996668;28;20030;-81
2022/06/18 10:30:03;;;;;;;10.50;3.30;;;743.10;1843.20;;;;;;4995961;28;20053;-81
2022/06/18 10:32:49;;;;;;;11.48;4.25;;;743.10;1843.20;;;;;;4996485;28;20042;-82
2022/06/18 10:35:56;;;;;;;5.97;3.33;;;743.00;1843.20;;;;;;5014266;28;20460;-83
2022/06/18 10:39:04;;;;;;;6.88;3.60;;;743.10;1843.20;;;;;;4996137;28;20124;-81
2022/06/18 10:41:45;;;;;;;9.57;3.38;;;743.10;1843.20;;;;;;4989752;28;20034;-80
2022/06/18 10:44:33;;;;;;;4.95;2.97;;;743.10;1843.20;;;;;;5014637;28;20088;-81
2022/06/18 10:47:08;;;;;;;10.45;3.95;;;743.10;1843.20;;;;;;4996530;28;20032;-81
2022/06/18 10:49:35;;;;;;;8.55;3.25;;;;;;;;;;5013543;28;20037;-81
2022/06/18 10:52:01;;;;;;;6.25;3.17;;;;;;;;;;4996288;28;20026;-82
2022/06/18 10:54:34;;;;;;;6.10;3.30;;;768.30;1792.00;;;;;;4996476;28;20022;-81
2022/06/18 10:57:01;;;;;;;4.50;3.38;;;768.30;1792.00;;;;;;4996648;28;20121;-81
2022/06/18 10:59:38;;;;;;;6.47;3.40;;;768.40;1792.00;;;;;;5000123;28;20030;-82
2022/06/18 11:02:32;;;;;;;6.07;3.25;;;768.40;1792.00;;;;;;5003161;28;20026;-82
2022/06/18 11:05:03;;;;;;;5.80;3.55;;;768.50;1766.40;;;;;;5002565;28;20034;-82
2022/06/18 11:07:31;;;;;;;6.00;3.03;;;768.60;1740.80;;;;;;5015959;28;20029;-83
2022/06/18 11:10:19;;;;;;;5.82;3.20;;;768.80;1715.20;;;;;;5002941;28;20100;-83
2022/06/18 11:12:52;;;;;;;13.00;3.30;;;768.90;1715.20;;;;;;5002473;28;20460;-82
2022/06/18 11:15:37;;;;;;;6.13;3.28;;;768.90;1715.20;;;;;;5002948;28;20053;-84
2022/06/18 11:18:22;;;;;;;8.07;2.70;;;768.90;1689.60;;;;;;5001902;28;20116;-83
2022/06/18 11:20:59;;;;;;;4.45;3.10;;;768.80;1689.60;;;;;;5003381;28;20091;-84
2022/06/18 11:23:26;;;;;;;7.25;3.13;;;768.90;1664.00;;;;;;5019650;28;20030;-83
2022/06/18 11:25:55;;;;;;;5.38;3.85;;;;;;;;;;5035743;28;20040;-83
2022/06/18 11:28:28;;;;;;;5.28;3.67;;;794.00;1689.60;;;;;;5002684;28;20050;-83
2022/06/18 11:30:55;;;;;;;7.30;3.50;;;794.00;1689.60;;;;;;5039392;28;20026;-86
2022/06/18 11:33:37;;;;;;;4.85;2.63;;;794.00;1664.00;;;;;;5023148;28;20025;-84
2022/06/18 11:36:13;;;;;;;6.43;3.08;;;794.00;1689.60;;;;;;5022958;28;20034;-83
2022/06/18 11:38:49;;;;;;;6.72;3.83;;;794.50;1689.60;;;;;;5022032;28;20367;-84
2022/06/18 11:41:30;;;;;;;6.00;5.03;;;819.30;1664.00;;;;;;5023360;28;20057;-84
2022/06/18 11:44:20;;;;;;;11.07;4.28;;;794.40;1664.00;;;;;;5039740;28;20022;-83
2022/06/18 11:46:53;;;;;;;5.55;3.15;;;794.50;1664.00;;;;;;5022104;28;20168;-85
2022/06/18 11:49:42;;;;;;;5.70;3.42;;;794.10;1638.40;;;;;;5022028;28;20022;-83
2022/06/18 11:52:40;;;;;;;6.00;2.90;;;794.50;1664.00;;;;;;5022036;28;20022;-84
2022/06/18 11:55:23;;;;;;;5.22;3.10;;;794.30;1638.40;;;;;;5019002;28;20030;-82
2022/06/18 11:58:31;;;;;;;3.95;2.92;;;794.50;1587.20;;;;;;5016585;28;20026;-81
2022/06/18 12:01:05;;;;;;;5.10;2.72;;;794.50;1587.20;;;;;;5017695;28;20430;-81
2022/06/18 12:03:43;;;;;;;6.32;2.58;;;794.50;1612.80;;;;;;5002443;28;20116;-82
2022/06/18 12:06:20;;;;;;;4.82;2.90;;;794.30;1638.40;;;;;;5002315;28;20392;-81
2022/06/18 12:08:47;;;;;;;5.78;2.90;;;794.10;1638.40;;;;;;5002070;28;20049;-82
2022/06/18 12:11:46;;;;;;;7.25;3.00;;;794.50;1612.80;;;;;;4999213;28;20519;-83
2022/06/18 12:14:19;;;;;;;6.05;2.95;;;794.50;1612.80;;;;;;4998540;28;20022;-82
2022/06/18 12:16:55;;;;;;;7.05;2.85;;;819.40;1612.80;;;;;;4999004;28;20044;-82
2022/06/18 12:19:47;;;;;;;6.80;3.00;;;819.40;1587.20;;;;;;4998983;28;20368;-79
2022/06/18 12:22:19;;;;;;;8.13;3.42;;;819.40;1561.60;;;;;;5005412;28;20429;-79
2022/06/18 12:25:16;;;;;;;5.85;3.38;;;819.60;1561.60;;;;;;5014907;28;20131;-78
2022/06/18 12:27:49;;;;;;;6.50;2.80;;;819.70;1561.60;;;;;;4998075;28;20105;-79
2022/06/18 12:30:23;;;;;;;8.20;3.63;;;819.80;1561.60;;;;;;5015683;28;20069;-79
2022/06/18 12:32:59;;;;;;;12.18;7.75;;;820.00;1561.60;;;;;;5015950;28;20026;-79
2022/06/18 12:35:45;;;;;;;4.93;3.08;;;819.90;1587.20;;;;;;4999237;28;20120;-83
2022/06/18 12:38:10;;;;;;;5.20;2.85;;;820.00;1561.60;;;;;;4998711;28;20068;-81
2022/06/18 12:40:55;;;;;;;4.50;2.85;;;820.10;1561.60;;;;;;4998800;28;20075;-82
2022/06/18 12:43:42;;;;;;;6.40;2.78;;;820.00;1536.00;;;;;;4998345;28;20033;-82
2022/06/18 12:46:17;;;;;;;8.45;3.42;;;819.70;1561.60;;;;;;4998560;28;20033;-83
2022/06/18 12:48:57;;;;;;;7.57;2.78;;;819.40;1638.40;;;;;;4998366;28;20026;-82
2022/06/18 12:51:29;;;;;;;8.73;3.58;;;794.20;1689.60;;;;;;4998269;28;20032;-82
2022/06/18 12:54:16;;;;;;;6.03;3.13;;;794.00;1740.80;;;;;;4998213;28;20029;-80
2022/06/18 12:57:07;;;;;;;7.82;3.50;;;768.90;1689.60;;;;;;5015500;28;20568;-80
2022/06/18 13:00:04;;;;;;;6.05;3.20;;;768.90;1715.20;;;;;;4998387;28;20065;-79
2022/06/18 13:02:32;;;;;;;10.40;3.33;;;793.80;1740.80;;;;;;5015561;28;20113;-82
2022/06/18 13:05:01;;;;;;;7.68;3.25;;;794.40;1689.60;;;;;;5016029;28;20034;-82
2022/06/18 13:08:02;;;;;;;9.13;4.00;;;768.90;1715.20;;;;;;5007269;28;20038;-83